Aérodrome :
LOGIN :

S'inscrire | Disclaimer

   EN    FR    IT 

 










Légende :    VFR   VFR Marginal   IFR   IFR Intensif   IFR Très Intensif
Visi : 
Plafond : 
>= 8 km
>= 3000ft
5 à 8 km
1000 à 3000 ft
1500m à 5 km
500 à 1000 ft
800 à 1500m
200 à 500 ft
< 800m
< 200 ft
Symboles :   Orages  Brouillard  Fortes neiges  Fortes précipitations  Vent > 20 kt
SIGMETs :   Divers  Orages  Givrage  Turbulence  Onde Orograph.  Cendres Volcan.






- Altitude de l'aérodrome : 187 ft


ETNW - Wunstorf AB

DERNIER METAR :
  • 251520Z 26015G25KT 9999 FEW040 SCT060 09/M00 Q0994 BLU+BLU TEMPO WHT

METARs EXPIRÉS :
  • 251420Z 27018KT 9999 SCT040 09/00 Q0995 BLU+BLU TEMPO WHT
  • 251320Z 26021G32KT 9999 SCT038 09/M00 Q0995 BLU+BLU TEMPO WHT

TAF TAF ETNW
Valide du 25 à 12h jusqu'au 26 à 12h UTC


251120Z 2512/2612 25015G25KT 9999 NSW SCT015 BKN040
TEMPO 2512/2518 26020G35KT 5000 -SHRA BKN020TCU
BECMG 2518/2520 25008KT 9999 NSW BKN025
TEMPO 2521/2612 26010G20KT 6000 -RA BKN010 BY ETGL



MET'MAP, la Météo Aéronautique d'un coup d'oeil ! - Copyright ORBIFLY Décembre 2007 - Disclaimer

ORBIFLY MET'MAP TEAM :

Programmation & Développement : Alexandra Zaïnal
Sur une idée originale de : Baudouin d'Aumeries
Assistance à la programmation : Marc-Olivier Méhu
Soutien technique & logistique : Manuel Goepfert

Contact : metmap@orbifly.com




SOURCES & CREDITS :

   NOAA